createdAt,value
2018-07-01T00:00:15.168Z,19.19
2018-07-01T00:02:43.348Z,19.19
2018-07-01T00:05:12.115Z,19.15
2018-07-01T00:07:40.188Z,19.05
2018-07-01T00:10:09.245Z,18.99
2018-07-01T00:12:37.756Z,19.01
2018-07-01T00:15:06.191Z,18.96
2018-07-01T00:17:34.309Z,18.93
2018-07-01T00:20:02.445Z,18.98
2018-07-01T00:22:30.541Z,18.93
2018-07-01T00:24:58.628Z,18.93
2018-07-01T00:27:26.697Z,18.89
2018-07-01T00:29:54.782Z,18.88
2018-07-01T00:32:22.852Z,18.85
2018-07-01T00:34:50.946Z,18.88
2018-07-01T00:37:19.037Z,18.73
2018-07-01T00:39:47.124Z,18.74
2018-07-01T00:42:15.208Z,18.77
2018-07-01T00:44:43.295Z,18.70
2018-07-01T00:47:11.405Z,18.70
2018-07-01T00:49:39.484Z,18.66
2018-07-01T00:52:07.574Z,18.72
2018-07-01T00:54:35.655Z,18.62
2018-07-01T00:57:03.754Z,18.64
2018-07-01T00:59:31.844Z,18.59
2018-07-01T01:01:59.919Z,18.62
2018-07-01T01:04:28.015Z,18.58
2018-07-01T01:06:56.179Z,18.54
2018-07-01T01:09:24.289Z,18.46
2018-07-01T01:11:52.447Z,18.45
2018-07-01T01:14:20.512Z,18.42
2018-07-01T01:16:48.586Z,18.46
2018-07-01T01:19:16.676Z,18.44
2018-07-01T01:21:44.769Z,18.45
2018-07-01T01:24:12.920Z,18.46
2018-07-01T01:26:41.039Z,18.46
2018-07-01T01:29:09.123Z,18.35
2018-07-01T01:31:37.204Z,18.29
2018-07-01T01:34:05.532Z,18.29
2018-07-01T01:36:35.271Z,18.27
2018-07-01T01:39:05.474Z,18.19
2018-07-01T01:41:37.959Z,18.26
2018-07-01T01:44:09.674Z,18.19
2018-07-01T01:46:51.323Z,18.21
2018-07-01T01:49:23.275Z,18.20
2018-07-01T01:51:57.692Z,18.11
2018-07-01T01:54:30.764Z,18.06
2018-07-01T01:57:06.292Z,18.03
2018-07-01T01:59:40.255Z,17.99
2018-07-01T02:02:15.707Z,17.85
2018-07-01T02:04:58.400Z,17.81
2018-07-01T02:07:30.680Z,17.75
2018-07-01T02:09:58.763Z,17.73
2018-07-01T02:12:26.842Z,17.67
2018-07-01T02:14:57.551Z,17.76
2018-07-01T02:17:28.662Z,17.60
2018-07-01T02:19:56.767Z,17.59
2018-07-01T02:22:30.539Z,17.64
2018-07-01T02:24:59.571Z,17.64
2018-07-01T02:27:27.670Z,17.62
2018-07-01T02:29:55.801Z,17.66
2018-07-01T02:32:23.885Z,17.56
2018-07-01T02:34:51.971Z,17.44
2018-07-01T02:37:20.065Z,17.58
2018-07-01T02:39:48.173Z,17.47
2018-07-01T02:42:16.262Z,17.43
2018-07-01T02:44:44.353Z,17.47
2018-07-01T02:47:12.433Z,17.35
2018-07-01T02:49:40.511Z,17.40
2018-07-01T02:52:08.591Z,17.28
2018-07-01T02:54:36.679Z,17.38
2018-07-01T02:57:04.752Z,17.41
2018-07-01T02:59:32.878Z,17.33
2018-07-01T03:02:00.943Z,17.30
2018-07-01T03:04:29.039Z,17.27
2018-07-01T03:06:57.114Z,17.27
2018-07-01T03:09:25.191Z,17.21
2018-07-01T03:11:53.267Z,17.20
2018-07-01T03:14:21.409Z,17.14
2018-07-01T03:16:49.495Z,17.09
2018-07-01T03:19:17.631Z,17.11
2018-07-01T03:21:45.856Z,17.02
2018-07-01T03:24:13.998Z,17.08
2018-07-01T03:26:42.072Z,17.05
2018-07-01T03:29:10.154Z,17.04
2018-07-01T03:31:38.262Z,17.01
2018-07-01T03:34:06.352Z,17.00
2018-07-01T03:36:34.416Z,17.02
2018-07-01T03:39:02.584Z,16.92
2018-07-01T03:41:30.719Z,16.96
2018-07-01T03:43:58.836Z,16.99
2018-07-01T03:46:26.924Z,16.93
2018-07-01T03:48:55.003Z,16.93
2018-07-01T03:51:23.071Z,16.91
2018-07-01T03:53:51.164Z,16.93
2018-07-01T03:56:19.252Z,16.80
2018-07-01T03:58:47.324Z,16.82
2018-07-01T04:01:15.403Z,16.86
2018-07-01T04:03:43.488Z,16.79
2018-07-01T04:06:11.678Z,16.86
2018-07-01T04:08:39.748Z,16.86
2018-07-01T04:11:07.839Z,16.92
2018-07-01T04:13:35.933Z,16.88
2018-07-01T04:16:04.274Z,16.82
2018-07-01T04:18:32.367Z,16.89
2018-07-01T04:21:00.447Z,16.89
2018-07-01T04:23:28.529Z,16.90
2018-07-01T04:25:56.614Z,16.89
2018-07-01T04:28:24.725Z,16.83
2018-07-01T04:30:52.842Z,16.90
2018-07-01T04:33:20.908Z,16.85
2018-07-01T04:35:48.972Z,16.95
2018-07-01T04:38:17.045Z,16.99
2018-07-01T04:40:45.146Z,17.09
2018-07-01T04:43:13.230Z,17.11
2018-07-01T04:45:41.318Z,17.22
2018-07-01T04:48:09.397Z,17.13
2018-07-01T04:50:37.551Z,17.14
2018-07-01T04:53:05.630Z,17.18
2018-07-01T04:55:33.720Z,17.21
2018-07-01T04:58:01.820Z,17.22
2018-07-01T05:00:29.898Z,17.24
2018-07-01T05:02:58.083Z,17.24
2018-07-01T05:05:26.155Z,17.29
2018-07-01T05:07:54.411Z,17.34
2018-07-01T05:10:22.492Z,17.31
2018-07-01T05:12:50.576Z,17.36
2018-07-01T05:15:18.759Z,17.36
2018-07-01T05:17:46.848Z,17.47
2018-07-01T05:20:14.925Z,17.47
2018-07-01T05:22:43.012Z,17.62
2018-07-01T05:25:11.084Z,17.81
2018-07-01T05:27:39.252Z,17.79
2018-07-01T05:30:07.283Z,17.86
2018-07-01T05:32:35.416Z,17.88
2018-07-01T05:35:03.543Z,17.96
2018-07-01T05:37:31.556Z,18.02
2018-07-01T05:39:59.642Z,17.97
2018-07-01T05:42:27.742Z,18.08
2018-07-01T05:44:55.815Z,18.22
2018-07-01T05:47:23.927Z,18.30
2018-07-01T05:49:52.044Z,18.38
2018-07-01T05:52:20.117Z,18.51
2018-07-01T05:54:48.199Z,18.67
2018-07-01T05:57:16.391Z,18.80
2018-07-01T05:59:44.374Z,18.80
2018-07-01T06:02:12.455Z,18.90
2018-07-01T06:04:40.535Z,19.01
2018-07-01T06:07:08.614Z,19.13
2018-07-01T06:09:36.733Z,19.19
2018-07-01T06:12:04.899Z,19.28
2018-07-01T06:14:33.008Z,19.34
2018-07-01T06:17:01.093Z,19.52
2018-07-01T06:19:29.203Z,19.58
2018-07-01T06:21:57.286Z,19.67
2018-07-01T06:24:25.383Z,19.76
2018-07-01T06:26:53.659Z,19.83
2018-07-01T06:29:21.779Z,19.86
2018-07-01T06:31:49.882Z,19.95
2018-07-01T06:34:18.090Z,19.95
2018-07-01T06:36:46.220Z,19.95
2018-07-01T06:39:14.331Z,20.00
2018-07-01T06:41:42.459Z,20.12
2018-07-01T06:44:10.582Z,20.28
2018-07-01T06:46:38.667Z,20.30
2018-07-01T06:49:06.766Z,20.41
2018-07-01T06:51:34.853Z,20.46
2018-07-01T06:54:02.956Z,20.54
2018-07-01T06:56:31.106Z,20.62
2018-07-01T06:58:59.136Z,20.73
2018-07-01T07:01:27.214Z,20.87
2018-07-01T07:03:55.279Z,21.05
2018-07-01T07:06:23.419Z,21.09
2018-07-01T07:08:51.495Z,21.11
2018-07-01T07:11:19.562Z,21.23
2018-07-01T07:13:47.652Z,21.38
2018-07-01T07:16:15.759Z,21.39
2018-07-01T07:18:43.885Z,21.25
2018-07-01T07:21:11.961Z,21.26
2018-07-01T07:23:40.033Z,21.32
2018-07-01T07:26:08.119Z,21.40
2018-07-01T07:28:36.196Z,21.54
2018-07-01T07:31:04.364Z,21.58
2018-07-01T07:33:32.430Z,21.63
2018-07-01T07:36:00.514Z,21.65
2018-07-01T07:38:28.606Z,21.68
2018-07-01T07:40:56.699Z,21.69
2018-07-01T07:43:24.782Z,21.72
2018-07-01T07:45:52.858Z,22.02
2018-07-01T07:48:20.930Z,22.10
2018-07-01T07:50:49.110Z,22.02
2018-07-01T07:53:17.224Z,22.02
2018-07-01T07:55:45.507Z,22.07
2018-07-01T07:58:13.616Z,22.33
2018-07-01T08:00:41.704Z,22.36
2018-07-01T08:03:09.776Z,22.38
2018-07-01T08:05:37.895Z,22.47
2018-07-01T08:08:06.278Z,22.55
2018-07-01T08:10:34.511Z,22.54
2018-07-01T08:13:02.663Z,22.66
2018-07-01T08:15:30.785Z,22.20
2018-07-01T08:17:58.867Z,22.48
2018-07-01T08:20:26.972Z,22.77
2018-07-01T08:22:55.051Z,22.85
2018-07-01T08:25:23.125Z,22.81
2018-07-01T08:27:51.223Z,22.64
2018-07-01T08:30:19.294Z,22.59
2018-07-01T08:32:47.426Z,22.65
2018-07-01T08:35:15.552Z,22.67
2018-07-01T08:37:43.703Z,22.64
2018-07-01T08:40:11.803Z,22.74
2018-07-01T08:42:39.951Z,22.87
2018-07-01T08:45:08.885Z,22.85
2018-07-01T08:47:37.304Z,22.83
2018-07-01T08:50:06.298Z,22.88
2018-07-01T08:52:34.475Z,22.92
2018-07-01T08:55:02.484Z,22.90
2018-07-01T08:57:30.654Z,23.05
2018-07-01T08:59:58.787Z,22.98
2018-07-01T09:02:26.858Z,23.01
2018-07-01T09:04:54.955Z,23.10
2018-07-01T09:07:23.067Z,23.25
2018-07-01T09:09:51.621Z,23.23
2018-07-01T09:12:19.715Z,23.05
2018-07-01T09:14:47.818Z,23.21
2018-07-01T09:17:15.939Z,23.19
2018-07-01T09:19:44.128Z,23.14
2018-07-01T09:22:12.210Z,23.30
2018-07-01T09:24:40.328Z,23.30
2018-07-01T09:27:08.425Z,23.44
2018-07-01T09:29:40.830Z,23.44
2018-07-01T09:32:09.199Z,23.49
2018-07-01T09:34:37.350Z,23.48
2018-07-01T09:37:05.546Z,23.54
2018-07-01T09:39:33.680Z,23.48
2018-07-01T09:42:01.800Z,23.64
2018-07-01T09:44:29.881Z,23.79
2018-07-01T09:46:58.051Z,23.95
2018-07-01T09:49:26.201Z,23.90
2018-07-01T09:51:54.315Z,23.96
2018-07-01T09:54:22.472Z,24.10
2018-07-01T09:56:50.627Z,24.16
2018-07-01T09:59:18.766Z,24.16
2018-07-01T10:01:46.830Z,24.15
2018-07-01T10:04:14.938Z,24.11
2018-07-01T10:06:43.022Z,24.06
2018-07-01T10:09:11.502Z,24.17
2018-07-01T10:11:39.751Z,24.16
2018-07-01T10:14:08.553Z,24.29
2018-07-01T10:16:36.691Z,24.34
2018-07-01T10:19:05.352Z,24.37
2018-07-01T10:21:33.472Z,24.16
2018-07-01T10:24:01.583Z,24.10
2018-07-01T10:26:29.704Z,24.24
2018-07-01T10:29:15.748Z,24.28
2018-07-01T10:31:44.726Z,24.29
2018-07-01T10:34:13.506Z,24.37
2018-07-01T10:36:41.658Z,24.45
2018-07-01T10:39:11.286Z,24.51
2018-07-01T10:41:39.430Z,24.63
2018-07-01T10:44:07.533Z,24.48
2018-07-01T10:46:35.668Z,24.41
2018-07-01T10:49:03.841Z,24.43
2018-07-01T10:51:31.958Z,24.52
2018-07-01T10:54:00.055Z,24.56
2018-07-01T10:56:28.173Z,24.63
2018-07-01T10:58:56.249Z,24.67
2018-07-01T11:01:24.335Z,24.71
2018-07-01T11:03:52.427Z,24.74
2018-07-01T11:06:20.605Z,24.86
2018-07-01T11:08:48.654Z,24.64
2018-07-01T11:11:16.739Z,24.67
2018-07-01T11:13:44.843Z,24.62
2018-07-01T11:16:12.928Z,24.76
2018-07-01T11:18:41.019Z,24.81
2018-07-01T11:21:09.282Z,24.99
2018-07-01T11:23:37.341Z,24.94
2018-07-01T11:26:05.671Z,24.77
2018-07-01T11:28:33.788Z,24.78
2018-07-01T11:31:01.916Z,24.96
2018-07-01T11:33:29.998Z,25.01
2018-07-01T11:35:58.091Z,25.18
2018-07-01T11:38:26.192Z,25.34
2018-07-01T11:40:54.388Z,25.27
2018-07-01T11:43:22.532Z,25.30
2018-07-01T11:45:50.607Z,25.22
2018-07-01T11:48:18.697Z,25.19
2018-07-01T11:50:46.779Z,25.18
2018-07-01T11:53:14.869Z,25.27
2018-07-01T11:55:43.016Z,25.36
2018-07-01T11:58:11.171Z,25.33
2018-07-01T12:00:39.227Z,25.34
2018-07-01T12:03:07.307Z,25.41
2018-07-01T12:05:35.652Z,25.42
2018-07-01T12:08:03.671Z,25.23
2018-07-01T12:10:31.758Z,25.57
2018-07-01T12:13:05.228Z,25.65
2018-07-01T12:15:33.342Z,25.66
2018-07-01T12:18:01.432Z,25.74
2018-07-01T12:20:29.511Z,25.51
2018-07-01T12:22:57.717Z,25.51
2018-07-01T12:25:25.803Z,25.73
2018-07-01T12:27:53.890Z,25.80
2018-07-01T12:30:22.102Z,25.96
2018-07-01T12:32:50.236Z,25.81
2018-07-01T12:35:18.550Z,25.73
2018-07-01T12:37:46.643Z,25.87
2018-07-01T12:40:14.741Z,25.95
2018-07-01T12:42:42.833Z,25.99
2018-07-01T12:45:10.927Z,26.00
2018-07-01T12:47:39.113Z,26.08
2018-07-01T12:50:07.287Z,26.09
2018-07-01T12:52:35.363Z,26.03
2018-07-01T12:55:03.455Z,26.12
2018-07-01T12:57:31.720Z,26.24
2018-07-01T12:59:59.872Z,26.27
2018-07-01T13:02:48.708Z,26.21
2018-07-01T13:05:16.791Z,26.32
2018-07-01T13:07:45.085Z,26.29
2018-07-01T13:10:13.164Z,26.36
2018-07-01T13:12:41.275Z,26.30
2018-07-01T13:15:09.408Z,26.32
2018-07-01T13:17:37.689Z,26.33
2018-07-01T13:20:06.043Z,26.41
2018-07-01T13:22:34.146Z,26.49
2018-07-01T13:25:02.254Z,26.41
2018-07-01T13:27:30.368Z,26.32
2018-07-01T13:29:58.931Z,26.29
2018-07-01T13:32:27.015Z,26.36
2018-07-01T13:34:55.122Z,26.43
2018-07-01T13:37:23.208Z,26.51
2018-07-01T13:39:51.276Z,26.33
2018-07-01T13:42:19.388Z,26.45
2018-07-01T13:44:47.502Z,26.68
2018-07-01T13:47:15.681Z,26.75
2018-07-01T13:49:43.904Z,26.58
2018-07-01T13:52:12.004Z,26.46
2018-07-01T13:54:40.147Z,26.48
2018-07-01T13:57:08.308Z,26.69
2018-07-01T13:59:36.366Z,26.80
2018-07-01T14:02:04.542Z,26.88
2018-07-01T14:04:32.931Z,26.79
2018-07-01T14:07:01.047Z,26.78
2018-07-01T14:09:29.141Z,26.88
2018-07-01T14:11:57.280Z,27.02
2018-07-01T14:14:25.362Z,26.95
2018-07-01T14:16:53.434Z,27.07
2018-07-01T14:19:55.155Z,27.08
2018-07-01T14:24:24.196Z,27.11
2018-07-01T14:26:52.373Z,27.08
2018-07-01T14:29:20.514Z,27.25
2018-07-01T14:31:48.604Z,27.25
2018-07-01T14:34:16.703Z,27.15
2018-07-01T14:36:44.812Z,27.14
2018-07-01T14:39:13.617Z,27.09
2018-07-01T14:41:41.840Z,27.13
2018-07-01T14:44:09.930Z,27.16
2018-07-01T14:46:38.083Z,27.14
2018-07-01T14:49:06.268Z,27.16
2018-07-01T14:51:34.586Z,27.23
2018-07-01T14:54:02.702Z,27.23
2018-07-01T14:56:31.190Z,27.22
2018-07-01T14:58:59.296Z,27.21
2018-07-01T15:01:27.368Z,27.39
2018-07-01T15:03:55.441Z,27.44
2018-07-01T15:06:23.527Z,27.53
2018-07-01T15:08:51.615Z,27.55
2018-07-01T15:11:19.695Z,27.47
2018-07-01T15:13:47.775Z,27.49
2018-07-01T15:16:15.844Z,27.47
2018-07-01T15:18:43.913Z,27.43
2018-07-01T15:21:12.016Z,27.39
2018-07-01T15:23:40.166Z,27.49
2018-07-01T15:26:08.250Z,27.58
2018-07-01T15:28:36.315Z,27.58
2018-07-01T15:31:04.499Z,27.41
2018-07-01T15:33:32.760Z,27.49
2018-07-01T15:36:00.806Z,27.36
2018-07-01T15:38:28.942Z,27.31
2018-07-01T15:40:57.032Z,27.39
2018-07-01T15:43:25.114Z,27.51
2018-07-01T15:45:53.308Z,27.62
2018-07-01T15:48:21.388Z,27.66
2018-07-01T15:50:49.479Z,27.69
2018-07-01T15:53:17.555Z,27.70
2018-07-01T15:55:45.662Z,27.68
2018-07-01T15:58:13.848Z,27.79
2018-07-01T16:00:41.951Z,27.79
2018-07-01T16:03:10.070Z,27.70
2018-07-01T16:05:38.167Z,27.85
2018-07-01T16:08:06.266Z,27.86
2018-07-01T16:10:34.344Z,27.78
2018-07-01T16:13:02.405Z,27.73
2018-07-01T16:15:30.503Z,27.75
2018-07-01T16:17:58.579Z,27.99
2018-07-01T16:20:26.686Z,28.00
2018-07-01T16:22:54.749Z,28.02
2018-07-01T16:25:28.057Z,27.72
2018-07-01T16:28:01.536Z,27.89
2018-07-01T16:30:29.632Z,28.12
2018-07-01T16:32:57.703Z,27.99
2018-07-01T16:35:25.813Z,28.00
2018-07-01T16:37:54.264Z,27.96
2018-07-01T16:40:22.389Z,28.16
2018-07-01T16:42:50.500Z,28.25
2018-07-01T16:45:18.584Z,28.04
2018-07-01T16:47:46.735Z,28.21
2018-07-01T16:50:14.860Z,28.14
2018-07-01T16:52:43.075Z,28.28
2018-07-01T16:55:11.188Z,28.51
2018-07-01T16:57:39.357Z,28.91
2018-07-01T17:00:08.145Z,29.69
2018-07-01T17:02:36.265Z,30.39
2018-07-01T17:05:04.470Z,30.35
2018-07-01T17:07:32.590Z,30.50
2018-07-01T17:10:00.881Z,30.79
2018-07-01T17:12:28.963Z,31.22
2018-07-01T17:14:57.259Z,31.23
2018-07-01T17:17:25.475Z,31.01
2018-07-01T17:19:53.536Z,31.59
2018-07-01T17:22:21.717Z,32.07
2018-07-01T17:24:49.699Z,32.03
2018-07-01T17:27:17.788Z,31.54
2018-07-01T17:29:45.844Z,31.54
2018-07-01T17:32:19.356Z,31.45
2018-07-01T17:34:47.424Z,31.32
2018-07-01T17:37:15.512Z,31.56
2018-07-01T17:39:43.641Z,31.47
2018-07-01T17:42:11.816Z,31.49
2018-07-01T17:44:39.959Z,31.13
2018-07-01T17:47:08.083Z,31.01
2018-07-01T17:49:36.143Z,30.93
2018-07-01T17:52:04.241Z,30.65
2018-07-01T17:54:32.323Z,29.46
2018-07-01T17:57:00.476Z,29.44
2018-07-01T17:59:28.604Z,29.44
2018-07-01T18:01:56.661Z,28.99
2018-07-01T18:04:24.791Z,28.70
2018-07-01T18:06:52.886Z,28.33
2018-07-01T18:09:20.964Z,28.16
2018-07-01T18:11:49.099Z,27.91
2018-07-01T18:14:17.225Z,27.63
2018-07-01T18:16:45.352Z,27.71
2018-07-01T18:19:13.481Z,27.61
2018-07-01T18:24:35.138Z,27.47
2018-07-01T18:26:34.076Z,27.31
2018-07-01T18:29:10.780Z,27.28
2018-07-01T18:31:30.273Z,27.13
2018-07-01T18:33:58.405Z,26.96
2018-07-01T18:36:26.527Z,26.82
2018-07-01T18:38:54.678Z,26.71
2018-07-01T18:41:22.824Z,26.57
2018-07-01T18:43:50.984Z,26.44
2018-07-01T18:46:19.158Z,26.48
2018-07-01T18:48:47.283Z,26.41
2018-07-01T18:53:43.535Z,26.34
2018-07-01T18:56:11.946Z,26.27
2018-07-01T18:58:40.090Z,26.25
2018-07-01T19:01:08.192Z,26.07
2018-07-01T19:03:36.344Z,26.00
2018-07-01T19:06:04.536Z,25.95
2018-07-01T19:08:33.313Z,25.77
2018-07-01T19:11:01.425Z,25.66
2018-07-01T19:13:29.594Z,25.66
2018-07-01T19:15:57.750Z,25.63
2018-07-01T19:18:25.893Z,25.53
2018-07-01T19:20:54.049Z,25.49
2018-07-01T19:23:22.220Z,25.42
2018-07-01T19:25:50.342Z,25.39
2018-07-01T19:28:18.525Z,25.30
2018-07-01T19:30:46.654Z,25.23
2018-07-01T19:33:14.782Z,25.06
2018-07-01T19:35:42.906Z,24.91
2018-07-01T19:38:11.066Z,24.93
2018-07-01T19:40:39.236Z,24.94
2018-07-01T19:43:07.404Z,24.81
2018-07-01T19:45:35.562Z,24.72
2018-07-01T19:48:03.703Z,24.63
2018-07-01T19:50:31.832Z,24.58
2018-07-01T19:52:59.969Z,24.40
2018-07-01T19:55:28.094Z,24.38
2018-07-01T19:57:56.220Z,24.42
2018-07-01T20:00:24.382Z,24.38
2018-07-01T20:02:52.486Z,24.27
2018-07-01T20:05:21.191Z,24.15
2018-07-01T20:07:49.327Z,24.12
2018-07-01T20:10:17.492Z,24.08
2018-07-01T20:12:45.642Z,24.07
2018-07-01T20:15:13.750Z,23.98
2018-07-01T20:17:41.945Z,23.92
2018-07-01T20:20:10.115Z,23.77
2018-07-01T20:22:38.271Z,23.66
2018-07-01T20:25:06.387Z,23.65
2018-07-01T20:27:34.524Z,23.80
2018-07-01T20:30:02.677Z,23.70
2018-07-01T20:32:30.827Z,23.66
2018-07-01T20:34:59.123Z,23.65
2018-07-01T20:37:27.527Z,23.63
2018-07-01T20:39:55.659Z,23.52
2018-07-01T20:42:23.883Z,23.59
2018-07-01T20:44:51.996Z,23.59
2018-07-01T20:47:20.183Z,23.42
2018-07-01T20:49:48.322Z,23.44
2018-07-01T20:52:16.512Z,23.33
2018-07-01T20:54:44.662Z,23.35
2018-07-01T20:57:12.766Z,23.33
2018-07-01T20:59:40.893Z,23.28
2018-07-01T21:02:09.017Z,23.25
2018-07-01T21:04:37.790Z,23.22
2018-07-01T21:07:05.924Z,23.00
2018-07-01T21:09:34.056Z,23.04
2018-07-01T21:12:02.164Z,23.03
2018-07-01T21:14:30.306Z,22.96
2018-07-01T21:16:58.450Z,23.05
2018-07-01T21:19:26.601Z,22.94
2018-07-01T21:21:54.732Z,22.94
2018-07-01T21:24:22.855Z,22.77
2018-07-01T21:26:51.154Z,22.57
2018-07-01T21:29:19.282Z,22.27
2018-07-01T21:31:48.139Z,22.21
2018-07-01T21:34:16.345Z,22.04
2018-07-01T21:36:44.572Z,21.89
2018-07-01T21:39:12.777Z,21.76
2018-07-01T21:41:41.523Z,21.74
2018-07-01T21:44:09.897Z,21.61
2018-07-01T21:46:38.351Z,21.50
2018-07-01T21:49:08.372Z,21.30
2018-07-01T21:51:36.751Z,21.26
2018-07-01T21:54:05.013Z,21.18
2018-07-01T21:56:33.313Z,21.19
2018-07-01T21:59:01.576Z,21.07
2018-07-01T22:01:29.764Z,20.89
2018-07-01T22:03:57.927Z,20.84
2018-07-01T22:06:38.602Z,20.72
2018-07-01T22:09:07.544Z,20.76
2018-07-01T22:11:52.354Z,20.61
2018-07-01T22:14:23.681Z,20.50
2018-07-01T22:16:51.809Z,20.55
2018-07-01T22:19:20.653Z,20.47
2018-07-01T22:21:49.792Z,20.41
2018-07-01T22:24:17.870Z,20.34
2018-07-01T22:26:46.668Z,20.41
2018-07-01T22:30:40.014Z,20.27
2018-07-01T22:33:08.531Z,20.19
2018-07-01T22:35:41.430Z,20.24
2018-07-01T22:38:09.652Z,20.18
2018-07-01T22:40:37.975Z,20.12
2018-07-01T22:43:06.112Z,20.06
2018-07-01T22:45:34.679Z,20.04
2018-07-01T22:48:02.858Z,19.94
2018-07-01T22:50:31.272Z,19.79
2018-07-01T22:52:59.457Z,19.81
2018-07-01T22:55:27.737Z,19.79
2018-07-01T22:57:56.052Z,19.81
2018-07-01T23:00:24.319Z,19.74
2018-07-01T23:03:06.365Z,19.71
2018-07-01T23:05:34.502Z,19.62
2018-07-01T23:08:02.606Z,19.50
2018-07-01T23:10:31.449Z,19.44
2018-07-01T23:12:59.975Z,19.38
2018-07-01T23:15:28.142Z,19.32
2018-07-01T23:17:56.299Z,19.28
2018-07-01T23:20:24.610Z,19.29
2018-07-01T23:22:52.875Z,19.18
2018-07-01T23:25:21.018Z,19.18
2018-07-01T23:27:49.243Z,19.11
2018-07-01T23:30:17.656Z,19.08
2018-07-01T23:32:46.042Z,19.01
2018-07-01T23:35:14.166Z,19.01
2018-07-01T23:37:42.256Z,18.99
2018-07-01T23:40:11.030Z,18.96
2018-07-01T23:42:39.727Z,18.94
2018-07-01T23:45:09.007Z,18.88
2018-07-01T23:47:37.105Z,18.87
2018-07-01T23:50:05.956Z,18.84
2018-07-01T23:52:34.027Z,18.81
2018-07-01T23:55:02.117Z,18.84
2018-07-01T23:57:30.226Z,18.76
2018-07-01T23:59:58.363Z,18.81
